Time;durP1;ratioP1;P1;durP2;ratioP2;P2;SDS_P1;SDS_P2;PMS_P1;PMS_P2;Temp;Humidity;BMP_temperature;BMP_pressure;BME280_temperature;BME280_humidity;BME280_pressure;Samples;Min_cycle;Max_cycle;Signal;HPM_P1;HPM_P2
2023/01/01 00:02:01;;;;;;;48.88;22.05;;;;;;;12.78;51.58;100448.91;6213876;23;20029;-73
2023/01/01 00:04:27;;;;;;;73.78;32.95;;;;;;;12.74;51.66;100447.59;6213839;23;20028;-72
2023/01/01 00:06:54;;;;;;;32.28;16.15;;;;;;;12.72;51.61;100449.59;6213593;23;20342;-73
2023/01/01 00:12:05;;;;;;;49.28;21.55;;;;;;;12.79;51.04;100468.59;6213975;23;20099;-72
2023/01/01 00:14:32;;;;;;;27.60;12.50;;;;;;;12.84;50.85;100458.97;6213774;23;20019;-73
2023/01/01 00:16:59;;;;;;;101.65;55.63;;;;;;;12.70;51.11;100473.19;6214215;23;20025;-73
2023/01/01 00:19:25;;;;;;;21.85;9.65;;;;;;;12.71;51.19;100468.63;6214030;23;20020;-71
2023/01/01 00:21:52;;;;;;;31.98;12.93;;;;;;;12.67;50.97;100459.25;6214200;23;20047;-74
2023/01/01 00:24:19;;;;;;;16.50;8.52;;;;;;;12.73;50.67;100456.66;6213858;23;20025;-73
2023/01/01 00:26:45;;;;;;;22.00;9.85;;;;;;;12.81;50.30;100467.41;6213157;23;20024;-73
2023/01/01 00:29:12;;;;;;;21.60;10.57;;;;;;;12.68;50.50;100471.69;6213449;23;20071;-72
2023/01/01 00:31:38;;;;;;;15.52;7.25;;;;;;;12.90;49.86;100468.16;6213991;23;20067;-73
2023/01/01 00:34:05;;;;;;;20.08;8.18;;;;;;;12.70;49.78;100478.56;6213560;23;20020;-80
2023/01/01 00:36:31;;;;;;;14.05;5.70;;;;;;;12.74;49.32;100485.28;6212839;23;20099;-74
2023/01/01 00:38:58;;;;;;;15.13;6.82;;;;;;;12.82;49.05;100485.22;6213120;23;20039;-71
2023/01/01 00:41:24;;;;;;;26.17;12.70;;;;;;;12.70;49.51;100480.41;6213405;23;20087;-72
2023/01/01 00:43:51;;;;;;;21.08;8.57;;;;;;;12.71;49.36;100485.59;6213723;23;20036;-73
2023/01/01 00:46:17;;;;;;;15.00;5.10;;;;;;;12.74;49.12;100485.28;6213295;22;20091;-73
2023/01/01 00:48:44;;;;;;;11.13;4.88;;;;;;;12.73;49.20;100480.03;6212473;23;20028;-73
2023/01/01 00:51:11;;;;;;;21.20;9.90;;;;;;;12.70;48.99;100481.25;6213314;23;20048;-71
2023/01/01 00:53:38;;;;;;;19.73;7.40;;;;;;;12.72;48.74;100486.44;6160930;23;20020;-73
2023/01/01 00:56:05;;;;;;;12.70;4.15;;;;;;;12.67;48.57;100486.16;6214050;23;20025;-73
2023/01/01 00:58:31;;;;;;;10.38;4.03;;;;;;;12.72;48.39;100489.97;6213564;23;20036;-72
2023/01/01 01:00:58;;;;;;;11.50;4.95;;;;;;;12.76;48.04;100496.69;6213388;23;20022;-73
2023/01/01 01:03:28;;;;;;;9.45;4.63;;;;;;;12.79;48.08;100492.81;6213308;23;20025;-73
2023/01/01 01:06:09;;;;;;;12.85;6.15;;;;;;;12.85;47.81;100498.31;6212417;23;20096;-73
2023/01/01 01:08:39;;;;;;;9.73;4.25;;;;;;;12.72;48.04;100503.44;6211240;23;20051;-73
2023/01/01 01:11:11;;;;;;;13.75;5.15;;;;;;;12.73;47.93;100498.88;6213677;23;20017;-73
2023/01/01 01:13:40;;;;;;;9.32;3.90;;;;;;;12.82;48.10;100514.81;6211944;23;20051;-73
2023/01/01 01:16:09;;;;;;;27.00;9.30;;;;;;;12.86;47.61;100510.75;6213269;23;20013;-73
2023/01/01 01:18:36;;;;;;;13.02;5.43;;;;;;;12.62;48.00;100505.53;6213219;23;20418;-72
2023/01/01 01:21:03;;;;;;;21.48;5.78;;;;;;;12.62;47.89;100498.28;6213039;23;20345;-72
2023/01/01 01:23:29;;;;;;;8.93;4.50;;;;;;;12.73;47.65;100515.03;6213737;23;20357;-73
2023/01/01 01:26:09;;;;;;;9.13;4.50;;;;;;;12.72;47.73;100513.34;6213238;23;20044;-74
2023/01/01 01:28:36;;;;;;;10.10;4.18;;;;;;;12.76;47.51;100512.00;6213062;23;20349;-73
2023/01/01 01:31:03;;;;;;;10.73;4.07;;;;;;;12.70;47.42;100510.88;6213055;23;20025;-72
2023/01/01 01:33:30;;;;;;;13.95;4.00;;;;;;;12.72;47.23;100514.19;6213598;23;20358;-73
2023/01/01 01:35:56;;;;;;;16.30;4.47;;;;;;;12.62;47.12;100511.72;6213435;23;20445;-73
2023/01/01 01:38:23;;;;;;;12.20;4.30;;;;;;;12.70;47.57;100510.03;6212667;23;20448;-73
2023/01/01 01:40:50;;;;;;;11.52;4.15;;;;;;;12.68;47.07;100510.19;6213154;23;20454;-73
2023/01/01 01:43:24;;;;;;;12.63;4.10;;;;;;;12.53;47.16;100522.75;6213299;23;20021;-73
2023/01/01 01:46:00;;;;;;;12.25;4.85;;;;;;;12.69;47.06;100514.56;6212852;23;20457;-73
2023/01/01 01:48:27;;;;;;;17.80;4.40;;;;;;;12.69;46.58;100514.56;6212612;23;20024;-73
2023/01/01 01:50:55;;;;;;;11.52;4.38;;;;;;;12.64;46.57;100516.94;6212932;23;20481;-73
2023/01/01 01:53:28;;;;;;;11.23;4.13;;;;;;;12.72;46.64;100511.50;6213098;23;20353;-73
2023/01/01 01:55:59;;;;;;;11.60;3.80;;;;;;;12.59;46.62;100505.88;6213123;23;20387;-73
2023/01/01 01:58:28;;;;;;;12.02;3.80;;;;;;;12.56;46.54;100514.31;6213086;23;20031;-73
2023/01/01 02:00:55;;;;;;;12.88;4.43;;;;;;;12.52;46.66;100502.22;6212897;23;20024;-74
2023/01/01 02:03:30;;;;;;;15.68;3.97;;;;;;;12.73;46.09;100520.41;6212462;23;20450;-73
2023/01/01 02:09:43;;;;;;;14.38;4.05;;;;;;;12.80;45.89;100514.19;6211884;23;20116;-72
2023/01/01 02:12:10;;;;;;;13.65;4.18;;;;;;;12.57;46.24;100522.22;6212581;23;20100;-72
2023/01/01 02:14:36;;;;;;;9.30;4.53;;;;;;;12.73;45.80;100526.66;6212574;23;20055;-74
2023/01/01 02:17:17;;;;;;;14.27;4.88;;;;;;;12.60;46.22;100529.94;6212982;23;20021;-74
2023/01/01 02:19:54;;;;;;;13.85;4.80;;;;;;;12.76;45.81;100512.84;6212709;23;20031;-72
2023/01/01 02:22:35;;;;;;;16.88;5.15;;;;;;;12.63;45.95;100518.81;6212778;23;20043;-73
2023/01/01 02:25:28;;;;;;;11.82;4.80;;;;;;;12.73;45.91;100509.66;6211428;23;20020;-74
2023/01/01 02:28:05;;;;;;;15.23;4.40;;;;;;;12.60;46.15;100515.63;6212553;23;20020;-73
2023/01/01 02:30:33;;;;;;;13.30;4.43;;;;;;;12.50;45.96;100517.72;6212692;23;20021;-73
2023/01/01 02:33:10;;;;;;;10.57;4.35;;;;;;;12.52;46.33;100513.84;6212900;23;20028;-72
2023/01/01 02:35:44;;;;;;;15.32;5.03;;;;;;;12.51;46.32;100505.94;6212399;23;20071;-73
2023/01/01 02:38:15;;;;;;;17.55;5.25;;;;;;;12.57;46.06;100502.53;6212030;23;20020;-72
2023/01/01 02:40:47;;;;;;;19.92;5.43;;;;;;;12.50;46.20;100504.28;6212591;23;20326;-72
2023/01/01 02:43:14;;;;;;;17.17;6.20;;;;;;;12.62;45.98;100516.28;6212787;23;20013;-73
2023/01/01 02:45:47;;;;;;;14.10;5.43;;;;;;;12.48;46.29;100504.44;6212216;23;20172;-73
2023/01/01 02:48:47;;;;;;;15.05;4.75;;;;;;;12.55;46.14;100496.47;6212561;23;20024;-72
2023/01/01 02:51:26;;;;;;;13.90;4.78;;;;;;;12.52;46.16;100496.84;6212020;23;20021;-72
2023/01/01 02:54:19;;;;;;;14.77;4.97;;;;;;;12.61;45.93;100496.59;6212068;23;20028;-73
2023/01/01 02:57:09;;;;;;;37.13;5.95;;;;;;;12.53;46.13;100493.16;6212757;23;20346;-73
2023/01/01 03:03:01;;;;;;;12.40;4.50;;;;;;;12.43;46.01;100493.38;6214055;23;20016;-74
2023/01/01 03:08:47;;;;;;;20.50;4.25;;;;;;;12.47;46.05;100497.38;6214164;23;20024;-73
2023/01/01 03:11:17;;;;;;;9.88;4.05;;;;;;;12.43;46.07;100498.75;6214961;23;20095;-73
2023/01/01 03:14:13;;;;;;;12.73;4.13;;;;;;;12.47;45.88;100508.16;6214762;23;20024;-74
2023/01/01 03:17:05;;;;;;;10.23;4.40;;;;;;;12.49;46.13;100507.97;6169365;23;20024;-72
2023/01/01 03:19:38;;;;;;;12.75;4.40;;;;;;;12.48;46.08;100495.53;6214321;23;20026;-73
2023/01/01 03:22:16;;;;;;;17.48;4.03;;;;;;;12.53;45.73;100503.91;6214897;23;20027;-72
2023/01/01 03:25:11;;;;;;;11.95;3.75;;;;;;;12.58;45.71;100512.28;6213769;23;20082;-72
2023/01/01 03:27:45;;;;;;;11.13;4.05;;;;;;;12.55;45.78;100518.84;6213913;23;20097;-73
2023/01/01 03:30:14;;;;;;;13.43;4.88;;;;;;;12.40;46.09;100513.41;6214243;23;20016;-72
2023/01/01 03:33:06;;;;;;;13.02;4.32;;;;;;;12.56;46.08;100512.47;6214054;23;20027;-73
2023/01/01 03:35:39;;;;;;;17.48;4.55;;;;;;;12.47;45.96;100513.53;6213561;23;20358;-72
2023/01/01 03:38:55;;;;;;;11.23;4.70;;;;;;;12.37;46.22;100519.13;6214515;23;20039;-73
2023/01/01 03:41:39;;;;;;;9.57;4.55;;;;;;;12.35;46.19;100510.41;6203674;23;20016;-73
2023/01/01 03:44:23;;;;;;;11.10;3.65;;;;;;;12.37;46.12;100521.81;6213733;23;20092;-73
2023/01/01 03:46:50;;;;;;;12.18;3.60;;;;;;;12.40;46.19;100520.63;6214006;23;20048;-73
2023/01/01 03:49:19;;;;;;;17.95;4.60;;;;;;;12.48;46.11;100530.50;6213727;23;20461;-73
2023/01/01 03:52:22;;;;;;;12.70;4.03;;;;;;;12.48;46.12;100525.97;6213722;23;20033;-73
2023/01/01 03:55:07;;;;;;;10.70;4.32;;;;;;;12.47;46.19;100535.06;6213791;23;20020;-73
2023/01/01 03:58:08;;;;;;;13.23;4.57;;;;;;;12.31;46.46;100544.03;6214276;23;20020;-71
2023/01/01 04:00:39;;;;;;;17.27;5.07;;;;;;;12.33;46.15;100552.78;6213538;23;20020;-73
2023/01/01 04:03:18;;;;;;;;;;;;;;;12.30;46.46;100558.50;6214279;23;20063;-73
2023/01/01 04:05:45;;;;;;;17.90;5.13;;;;;;;12.28;46.55;100557.88;6213250;23;20256;-72
2023/01/01 04:08:14;;;;;;;16.63;4.60;;;;;;;12.35;46.30;100561.53;6213621;23;20025;-72
2023/01/01 04:10:47;;;;;;;12.63;4.15;;;;;;;12.17;46.57;100569.84;6213766;23;20420;-73
2023/01/01 04:13:14;;;;;;;9.15;3.97;;;;;;;12.34;46.48;100567.06;6213403;23;20020;-72
2023/01/01 04:15:41;;;;;;;13.23;3.90;;;;;;;12.24;46.54;100564.59;6213951;23;20091;-71
2023/01/01 04:18:08;;;;;;;12.05;4.50;;;;;;;12.15;46.50;100576.41;6214306;23;20403;-72
2023/01/01 04:20:34;;;;;;;8.88;4.43;;;;;;;12.13;46.71;100576.56;6213271;23;20334;-73
2023/01/01 04:23:02;;;;;;;13.90;4.88;;;;;;;12.20;46.66;100567.81;6213749;23;21004;-73
2023/01/01 04:25:29;;;;;;;21.02;4.85;;;;;;;12.15;46.93;100571.03;6213564;23;20096;-72
2023/01/01 04:28:02;;;;;;;16.67;4.50;;;;;;;12.20;46.77;100582.09;6213811;23;20088;-73
2023/01/01 04:30:29;;;;;;;11.68;4.88;;;;;;;12.16;46.97;100588.84;6213333;23;20100;-74
2023/01/01 04:32:55;;;;;;;10.50;4.38;;;;;;;12.16;46.80;100589.66;6213713;23;20029;-73
2023/01/01 04:35:22;;;;;;;13.30;4.25;;;;;;;12.15;46.70;100592.53;6213412;23;20349;-73
2023/01/01 04:37:49;;;;;;;14.73;4.15;;;;;;;12.17;46.60;100585.13;6212934;23;20425;-73
2023/01/01 04:40:15;;;;;;;11.55;4.95;;;;;;;12.18;46.52;100589.50;6213605;23;20020;-72
2023/01/01 04:42:42;;;;;;;11.30;4.28;;;;;;;12.07;47.08;100584.47;6213737;23;20434;-71
2023/01/01 04:45:11;;;;;;;7.97;4.18;;;;;;;11.97;47.36;100584.72;6213890;23;20020;-73
2023/01/01 04:47:37;;;;;;;21.02;4.68;;;;;;;11.85;47.27;100592.28;6213818;23;20025;-73
2023/01/01 04:50:04;;;;;;;13.57;4.10;;;;;;;12.02;47.20;100595.78;6213171;23;20027;-73
2023/01/01 04:52:32;;;;;;;16.35;4.45;;;;;;;12.01;47.17;100601.34;6212043;23;21913;-74
2023/01/01 04:54:58;;;;;;;14.05;4.57;;;;;;;11.97;47.21;100594.59;6212739;23;20028;-72
2023/01/01 04:57:25;;;;;;;14.68;4.63;;;;;;;11.87;47.48;100600.19;6211799;23;20100;-74
2023/01/01 04:59:51;;;;;;;11.02;4.18;;;;;;;11.96;47.46;100593.75;6211136;23;20025;-73
2023/01/01 05:02:18;;;;;;;16.67;4.53;;;;;;;11.95;47.52;100593.94;6213004;23;20027;-73
2023/01/01 05:04:45;;;;;;;13.60;4.40;;;;;;;11.87;47.68;100595.66;6213139;23;20389;-73
2023/01/01 05:07:11;;;;;;;8.85;4.05;;;;;;;11.89;47.47;100590.09;6214106;23;20020;-73
2023/01/01 05:09:38;;;;;;;11.75;4.25;;;;;;;11.85;47.59;100599.50;6213282;23;20017;-75
2023/01/01 05:12:04;;;;;;;13.45;4.15;;;;;;;11.81;47.92;100592.81;6213058;23;20043;-74
2023/01/01 05:14:32;;;;;;;9.75;3.95;;;;;;;11.79;47.78;100595.66;6212855;23;20025;-74
2023/01/01 05:16:58;;;;;;;17.77;4.32;;;;;;;11.90;47.75;100595.31;6213297;23;20040;-73
2023/01/01 05:19:25;;;;;;;11.05;3.55;;;;;;;11.90;47.82;100597.16;6213597;23;20334;-73
2023/01/01 05:21:52;;;;;;;12.23;3.60;;;;;;;11.91;47.70;100602.34;6211576;23;20025;-73
2023/01/01 05:24:19;;;;;;;14.52;3.80;;;;;;;11.79;48.00;100608.25;6212993;23;20108;-73
2023/01/01 05:26:46;;;;;;;13.75;4.22;;;;;;;11.76;48.03;100608.59;6213005;23;20526;-73
2023/01/01 05:29:12;;;;;;;11.50;4.53;;;;;;;11.97;47.66;100608.03;6213137;23;20016;-74
2023/01/01 05:31:43;;;;;;;12.10;3.97;;;;;;;11.81;47.97;100615.16;6212928;23;20028;-73
2023/01/01 05:34:10;;;;;;;12.98;4.18;;;;;;;11.85;47.90;100616.47;6213941;23;20020;-74
2023/01/01 05:36:37;;;;;;;10.02;4.13;;;;;;;11.93;47.87;100612.91;6214102;23;20143;-73
2023/01/01 05:44:28;;;;;;;12.25;3.45;;;;;;;11.74;48.32;100608.78;6225632;22;20039;-70
2023/01/01 05:46:54;;;;;;;6.35;2.45;;;;;;;11.78;47.84;100607.41;6240945;22;20008;-72
2023/01/01 05:49:21;;;;;;;16.35;3.72;;;;;;;11.74;48.17;100608.78;6222462;22;20064;-72
2023/01/01 05:54:41;;;;;;;15.00;3.53;;;;;;;11.74;48.12;100614.16;6160277;23;20191;-69
2023/01/01 05:57:07;;;;;;;10.73;3.17;;;;;;;11.76;48.12;100617.53;6151752;23;20010;-70
2023/01/01 05:59:34;;;;;;;10.55;3.08;;;;;;;11.88;47.79;100629.56;6151115;23;20001;-71
2023/01/01 06:02:00;;;;;;;11.00;2.38;;;;;;;11.80;48.11;100618.84;6150505;23;20061;-70
2023/01/01 06:04:27;;;;;;;16.65;3.13;;;;;;;11.81;47.96;100617.84;6151062;23;20018;-71
2023/01/01 06:06:54;;;;;;;11.10;3.17;;;;;;;11.74;48.15;100627.59;6150310;23;20006;-71
2023/01/01 06:09:20;;;;;;;10.05;2.80;;;;;;;11.74;48.29;100622.22;6151449;23;20013;-70
2023/01/01 06:11:47;;;;;;;18.08;3.35;;;;;;;11.78;48.29;100623.53;6150994;23;20010;-71
2023/01/01 06:16:44;;;;;;;15.80;3.42;;;;;;;11.83;48.23;100621.19;6210587;22;20141;-69
2023/01/01 06:19:11;;;;;;;10.38;2.92;;;;;;;11.88;48.17;100621.50;6210525;23;20021;-71
2023/01/01 06:29:37;;;;;;;10.15;2.85;;;;;;;11.72;48.42;100629.59;6194566;22;20033;-70
2023/01/01 06:32:04;;;;;;;9.13;2.55;;;;;;;11.74;48.40;100632.97;6240182;22;20060;-69
2023/01/01 06:37:05;;;;;;;9.20;3.00;;;;;;;11.91;47.68;100629.25;6221949;22;20012;-68
2023/01/01 06:39:32;;;;;;;12.25;3.20;;;;;;;11.78;48.06;100633.47;6240615;22;20000;-71
2023/01/01 06:47:14;;;;;;;12.93;2.85;;;;;;;11.97;47.67;100643.00;6222107;22;20016;-69
2023/01/01 06:49:41;;;;;;;5.90;2.95;;;;;;;11.78;48.27;100652.28;6240499;22;20012;-69
2023/01/01 06:52:07;;;;;;;13.60;3.20;;;;;;;11.77;48.05;100658.66;6240489;22;20039;-70
2023/01/01 06:54:34;;;;;;;12.57;3.17;;;;;;;11.79;47.83;100659.31;6240599;22;20008;-70
2023/01/01 06:57:00;;;;;;;7.30;3.00;;;;;;;11.90;47.96;100648.25;6240211;22;20011;-68
2023/01/01 06:59:27;;;;;;;8.98;3.20;;;;;;;11.75;48.13;100644.56;6228432;22;20043;-69
2023/01/01 07:01:53;;;;;;;15.73;3.53;;;;;;;11.81;47.88;100650.09;6240267;22;20012;-69
2023/01/01 07:04:20;;;;;;;12.23;3.40;;;;;;;11.88;48.00;100650.25;6200039;22;20009;-71
2023/01/01 07:06:47;;;;;;;12.45;3.30;;;;;;;11.83;47.80;100669.59;6218092;22;20285;-69
2023/01/01 07:14:51;;;;;;;13.50;3.90;;;;;;;11.76;48.16;100673.09;6213302;22;20029;-70
2023/01/01 07:17:17;;;;;;;14.85;4.45;;;;;;;11.72;48.28;100671.75;6219313;22;20020;-70
2023/01/01 07:19:44;;;;;;;9.43;3.35;;;;;;;11.87;47.91;100673.59;6217194;22;20005;-70
2023/01/01 07:22:11;;;;;;;10.98;3.20;;;;;;;11.88;48.13;100682.50;6240151;22;20009;-68
2023/01/01 07:27:12;;;;;;;10.45;3.55;;;;;;;11.92;47.99;100692.75;6180695;22;20012;-71
2023/01/01 07:32:28;;;;;;;17.58;4.80;;;;;;;11.78;48.23;100684.53;6231026;22;20209;-71
2023/01/01 07:37:36;;;;;;;13.25;4.65;;;;;;;11.97;47.85;100686.88;6198867;22;20008;-70
2023/01/01 07:40:03;;;;;;;11.77;5.00;;;;;;;12.01;47.59;100690.06;6232299;22;20071;-70
2023/01/01 07:42:29;;;;;;;10.02;4.55;;;;;;;11.75;48.10;100688.38;6239971;22;20009;-70
2023/01/01 07:44:55;;;;;;;8.00;4.03;;;;;;;11.90;47.81;100696.63;6240294;22;19997;-71
2023/01/01 07:47:24;;;;;;;11.65;4.25;;;;;;;11.99;47.58;100692.91;6241830;22;20027;-71
2023/01/01 07:55:10;;;;;;;7.13;4.00;;;;;;;11.87;48.04;100726.53;6211605;23;20036;-71
2023/01/01 07:57:36;;;;;;;8.07;3.72;;;;;;;11.88;48.14;100715.59;6215581;22;20008;-70
2023/01/01 08:00:03;;;;;;;14.52;3.90;;;;;;;12.01;47.81;100725.00;6241613;22;20016;-72
2023/01/01 08:02:30;;;;;;;7.93;3.70;;;;;;;11.95;47.81;100717.63;6241600;22;20004;-69
2023/01/01 08:07:24;;;;;;;9.38;4.18;;;;;;;12.03;47.60;100729.19;6211470;22;20081;-72
2023/01/01 08:49:03;;;;;;;8.57;3.40;;;;;;;12.12;47.86;100776.59;6193655;22;20326;-71
2023/01/01 08:51:29;;;;;;;12.02;4.35;;;;;;;12.11;48.01;100774.09;6213421;23;20040;-70
2023/01/01 08:53:56;;;;;;;13.38;4.13;;;;;;;12.00;48.10;100777.09;6213771;23;20023;-70
2023/01/01 08:56:22;;;;;;;7.68;4.25;;;;;;;12.06;47.98;100777.25;6213260;23;20027;-71
2023/01/01 08:58:49;;;;;;;10.10;3.75;;;;;;;12.25;47.93;100780.63;6213228;23;20029;-70
2023/01/01 09:01:16;;;;;;;11.95;4.25;;;;;;;11.98;48.20;100793.41;6212897;23;20024;-71
2023/01/01 09:03:42;;;;;;;7.22;3.95;;;;;;;12.18;47.98;100785.84;6213428;23;20020;-72
2023/01/01 09:06:09;;;;;;;15.48;3.75;;;;;;;12.14;47.87;100790.72;6213688;23;20040;-70
2023/01/01 09:08:35;;;;;;;10.75;3.92;;;;;;;12.15;48.02;100796.94;6213857;23;20095;-70
2023/01/01 09:11:02;;;;;;;10.98;3.95;;;;;;;12.32;47.79;100808.53;6213725;23;20040;-72
2023/01/01 09:13:29;;;;;;;14.75;4.63;;;;;;;12.23;47.96;100813.06;6213422;23;20021;-71
2023/01/01 09:15:56;;;;;;;13.77;3.63;;;;;;;12.11;48.21;100819.81;6214197;23;20020;-71
2023/01/01 09:18:23;;;;;;;9.32;4.22;;;;;;;12.14;48.22;100816.75;6213132;23;20020;-71
2023/01/01 09:20:49;;;;;;;15.68;4.15;;;;;;;12.25;48.09;100826.34;6213064;23;20024;-71
2023/01/01 09:23:16;;;;;;;9.20;3.63;;;;;;;12.19;48.28;100835.94;6212234;23;20051;-71
2023/01/01 09:25:42;;;;;;;11.70;3.50;;;;;;;12.14;48.41;100841.81;6212701;23;20105;-71
2023/01/01 09:28:11;;;;;;;10.02;4.15;;;;;;;12.26;47.98;100836.09;6212790;23;20030;-71
2023/01/01 09:30:38;;;;;;;12.05;3.97;;;;;;;12.23;48.08;100850.72;6212226;23;20461;-71
2023/01/01 09:33:04;;;;;;;8.80;3.70;;;;;;;12.19;48.20;100846.69;6212905;23;20348;-71
2023/01/01 09:35:31;;;;;;;8.68;3.70;;;;;;;12.40;48.00;100836.25;6212809;23;20079;-71
2023/01/01 09:37:58;;;;;;;11.30;4.28;;;;;;;12.43;47.80;100839.63;6213305;23;20032;-71
2023/01/01 09:40:42;;;;;;;7.93;3.75;;;;;;;12.29;47.93;100833.06;6212972;23;20021;-71
2023/01/01 09:43:22;;;;;;;;;;;;;;;12.45;47.88;100827.66;6213089;23;20024;-71
2023/01/01 09:45:51;;;;;;;9.27;3.35;;;;;;;12.28;48.09;100840.31;6213056;23;20025;-71
2023/01/01 09:48:17;;;;;;;9.27;3.55;;;;;;;12.51;47.68;100828.84;6212968;23;20020;-71
2023/01/01 09:50:45;;;;;;;9.98;3.05;;;;;;;12.32;47.97;100844.34;6212333;23;20035;-71
2023/01/01 09:53:31;;;;;;;12.50;3.15;;;;;;;12.55;47.68;100847.16;6212779;23;20020;-71
2023/01/01 09:56:00;;;;;;;11.25;3.45;;;;;;;12.52;47.92;100841.28;6198872;23;20079;-71
2023/01/01 09:58:32;;;;;;;10.07;3.58;;;;;;;12.52;47.76;100846.66;6212998;23;20047;-71
2023/01/01 10:01:01;;;;;;;;;;;;;;;12.74;47.27;100846.00;6210905;23;20020;-70
2023/01/01 10:03:46;;;;;;;5.80;2.83;;;;;;;12.66;47.42;100848.69;6210940;23;19919;-71
2023/01/01 10:06:33;;;;;;;15.30;4.30;;;;;;;12.86;46.91;100850.00;6212465;23;20092;-71
2023/01/01 10:09:14;;;;;;;8.13;3.50;;;;;;;13.10;46.93;100856.31;6181760;23;20017;-70
2023/01/01 10:12:19;;;;;;;11.93;3.30;;;;;;;12.77;47.14;100859.13;6182660;23;20388;-71
2023/01/01 10:14:52;;;;;;;7.47;3.00;;;;;;;13.04;46.61;100865.09;6195395;23;20401;-72
2023/01/01 10:17:37;;;;;;;10.50;3.15;;;;;;;13.14;46.61;100860.34;6212340;23;20068;-71
2023/01/01 10:20:18;;;;;;;10.88;3.00;;;;;;;13.05;46.78;100864.94;6212420;23;20430;-71
2023/01/01 10:22:51;;;;;;;6.32;2.70;;;;;;;12.96;46.94;100865.13;6213009;23;20028;-71
2023/01/01 10:25:21;;;;;;;5.65;2.78;;;;;;;12.99;46.98;100867.47;6212750;23;20020;-70
2023/01/01 10:27:58;;;;;;;9.40;2.88;;;;;;;12.74;47.51;100863.97;6212660;23;20100;-70
2023/01/01 10:30:26;;;;;;;9.65;3.30;;;;;;;12.92;47.35;100871.88;6213008;23;20353;-71
2023/01/01 10:32:54;;;;;;;7.93;3.13;;;;;;;13.03;47.04;100876.88;6212222;23;20124;-71
2023/01/01 10:35:22;;;;;;;10.90;3.53;;;;;;;13.09;46.96;100876.19;6211666;23;20404;-71
2023/01/01 10:37:58;;;;;;;8.30;3.17;;;;;;;12.96;47.26;100890.19;6212321;23;20351;-70
2023/01/01 10:40:26;;;;;;;10.25;3.47;;;;;;;13.07;46.95;100894.38;6212867;23;20095;-70
2023/01/01 10:42:59;;;;;;;10.43;3.05;;;;;;;13.14;46.60;100883.75;6212543;23;20107;-70
2023/01/01 10:45:32;;;;;;;10.30;3.03;;;;;;;12.93;47.22;100879.75;6212189;23;20055;-70
2023/01/01 10:48:25;;;;;;;13.55;3.20;;;;;;;12.87;47.48;100881.31;6212426;23;20020;-71
2023/01/01 10:50:55;;;;;;;9.43;2.90;;;;;;;12.90;47.30;100890.88;6211869;23;20100;-70
2023/01/01 10:53:40;;;;;;;8.68;2.97;;;;;;;12.76;47.40;100886.19;6212682;23;20032;-70
2023/01/01 10:56:12;;;;;;;7.47;2.90;;;;;;;12.95;47.37;100880.44;6212061;23;20027;-70
2023/01/01 10:58:47;;;;;;;6.35;2.60;;;;;;;12.78;47.54;100858.09;6212603;23;20091;-69
2023/01/01 11:01:16;;;;;;;11.80;3.03;;;;;;;12.94;47.29;100872.53;6212078;23;20590;-69
2023/01/01 11:04:12;;;;;;;9.88;3.63;;;;;;;13.00;47.03;100879.91;6211945;23;20028;-69
2023/01/01 11:06:41;;;;;;;11.10;3.58;;;;;;;12.99;47.19;100881.78;6211013;23;20023;-70
2023/01/01 11:09:21;;;;;;;9.13;2.88;;;;;;;12.86;47.34;100894.94;6212142;23;20025;-69
2023/01/01 11:11:56;;;;;;;10.32;2.97;;;;;;;13.03;47.20;100899.25;6211781;23;20092;-69
2023/01/01 11:14:52;;;;;;;9.82;3.03;;;;;;;13.03;46.60;100909.19;6197325;23;20017;-70
2023/01/01 11:17:33;;;;;;;12.60;2.70;;;;;;;12.96;46.66;100908.22;6212099;23;20027;-71
2023/01/01 11:20:03;;;;;;;10.75;2.72;;;;;;;12.92;46.75;100914.97;6212886;23;20020;-70
2023/01/01 11:22:49;;;;;;;11.82;3.08;;;;;;;12.94;46.72;100923.69;6213677;23;20024;-69
2023/01/01 11:25:27;;;;;;;7.85;2.92;;;;;;;12.97;46.72;100931.44;6212687;23;20016;-69
2023/01/01 11:28:15;;;;;;;13.82;2.55;;;;;;;13.10;46.42;100920.97;6214334;23;20028;-71
2023/01/01 11:31:02;;;;;;;6.72;2.63;;;;;;;13.18;46.46;100929.06;6186160;23;20358;-69
2023/01/01 11:33:33;;;;;;;11.52;3.13;;;;;;;12.89;46.86;100902.66;6184468;23;20028;-70
2023/01/01 11:36:00;;;;;;;6.93;3.10;;;;;;;13.19;46.40;100913.72;6183267;23;20025;-70
2023/01/01 11:38:27;;;;;;;7.50;2.67;;;;;;;13.18;46.07;100918.28;6182265;23;21649;-69
2023/01/01 11:41:03;;;;;;;8.55;2.72;;;;;;;13.13;46.28;100909.84;6184731;23;20124;-70
2023/01/01 11:43:37;;;;;;;5.93;2.53;;;;;;;13.10;46.30;100904.81;6183056;23;20104;-70
2023/01/01 11:46:07;;;;;;;7.35;2.83;;;;;;;13.18;46.31;100896.72;6213301;23;20023;-69
2023/01/01 11:48:35;;;;;;;9.27;2.63;;;;;;;13.11;46.40;100899.25;6213992;23;20024;-69
2023/01/01 11:51:05;;;;;;;10.63;2.90;;;;;;;13.49;45.52;100918.34;6212814;23;20021;-69
2023/01/01 11:53:40;;;;;;;18.50;2.70;;;;;;;13.45;45.93;100929.63;6212325;23;20021;-70
2023/01/01 11:56:13;;;;;;;4.40;2.17;;;;;;;13.47;46.00;100935.69;6210829;23;20460;-68
2023/01/01 11:59:05;;;;;;;13.98;3.25;;;;;;;13.49;45.84;100934.50;6213893;23;20509;-70
2023/01/01 12:01:34;;;;;;;9.13;2.58;;;;;;;13.63;45.43;100922.16;6213962;23;20017;-70
2023/01/01 12:04:19;;;;;;;9.20;3.30;;;;;;;13.34;46.22;100928.97;6212679;23;20021;-70
2023/01/01 12:07:24;;;;;;;20.23;3.83;;;;;;;13.45;46.13;100937.72;6212959;23;20024;-70
2023/01/01 12:10:00;;;;;;;8.60;2.60;;;;;;;13.33;46.23;100937.25;6195581;23;20023;-70
2023/01/01 12:12:38;;;;;;;9.20;2.38;;;;;;;13.15;46.66;100940.16;6199934;23;20092;-69
2023/01/01 12:15:23;;;;;;;8.27;2.47;;;;;;;13.43;46.26;100947.84;6212273;23;20091;-70
2023/01/01 12:18:16;;;;;;;8.20;2.33;;;;;;;13.56;45.97;100946.28;6212524;23;20043;-70
2023/01/01 12:20:50;;;;;;;7.78;2.83;;;;;;;13.50;46.22;100943.44;6213068;23;20100;-69
2023/01/01 12:23:18;;;;;;;15.20;3.45;;;;;;;13.46;46.29;100942.09;6213505;23;20100;-70
2023/01/01 12:26:00;;;;;;;9.70;2.55;;;;;;;13.32;46.54;100946.34;6213362;23;20051;-69
2023/01/01 12:28:38;;;;;;;8.98;2.50;;;;;;;13.55;46.27;100947.25;6212175;23;20100;-70
2023/01/01 12:31:04;;;;;;;12.30;2.20;;;;;;;13.59;46.03;100947.75;6211313;23;20044;-69
2023/01/01 12:33:36;;;;;;;8.35;2.95;;;;;;;13.39;46.59;100935.69;6213414;23;20020;-69
2023/01/01 12:36:22;;;;;;;7.13;2.17;;;;;;;13.35;46.43;100935.22;6213276;23;20488;-70
2023/01/01 12:39:12;;;;;;;8.40;2.63;;;;;;;13.35;46.57;100922.59;6213409;23;20024;-70
2023/01/01 12:42:00;;;;;;;9.25;3.10;;;;;;;13.39;46.80;100927.63;6213357;23;20017;-70
2023/01/01 12:44:38;;;;;;;8.57;3.47;;;;;;;13.33;46.96;100913.00;6211365;23;20501;-70
2023/01/01 12:47:29;;;;;;;8.50;3.15;;;;;;;13.13;47.45;100917.94;6211730;23;20025;-70
2023/01/01 12:50:04;;;;;;;7.90;2.60;;;;;;;13.09;47.77;100914.75;6210635;23;20127;-70
2023/01/01 12:53:13;;;;;;;7.93;2.30;;;;;;;13.20;47.39;100910.84;6210608;23;20334;-70
2023/01/01 12:55:58;;;;;;;8.05;2.70;;;;;;;13.04;47.76;100919.81;6177947;23;20095;-70
2023/01/01 12:58:50;;;;;;;10.57;2.70;;;;;;;13.17;47.64;100921.13;6212188;23;20020;-70
2023/01/01 13:01:23;;;;;;;7.95;2.97;;;;;;;13.14;47.66;100916.91;6197187;23;20020;-69
2023/01/01 13:04:01;;;;;;;10.30;3.15;;;;;;;12.96;48.06;100909.03;6212937;23;20029;-70
2023/01/01 13:06:48;;;;;;;12.23;3.38;;;;;;;13.09;48.11;100922.00;6213236;23;20016;-70
2023/01/01 13:09:21;;;;;;;12.52;3.25;;;;;;;12.97;48.10;100921.53;6213020;23;20365;-69
2023/01/01 13:12:03;;;;;;;8.65;3.08;;;;;;;12.97;48.18;100924.22;6213168;23;20048;-70
2023/01/01 13:14:38;;;;;;;12.27;3.03;;;;;;;13.15;47.98;100940.16;6212023;23;20044;-70
2023/01/01 13:17:22;;;;;;;12.73;3.28;;;;;;;13.20;47.72;100935.09;6213395;23;20091;-69
2023/01/01 13:19:56;;;;;;;11.02;3.60;;;;;;;12.99;48.29;100942.88;6211972;23;20116;-70
2023/01/01 13:22:26;;;;;;;16.02;4.07;;;;;;;12.77;48.65;100937.19;6213264;23;20100;-71
2023/01/01 13:25:20;;;;;;;12.93;3.10;;;;;;;12.94;48.41;100937.16;6210688;23;20413;-69